sensor_id;sensor_type;location;lat;lon;timestamp;P1;durP1;ratioP1;P2;durP2;ratioP2
10461;SDS011;5278;42.656;23.374;2023-11-21T00:00:40;5.47;;;4.07;;
10461;SDS011;5278;42.656;23.374;2023-11-21T00:03:07;6.80;;;4.20;;
10461;SDS011;5278;42.656;23.374;2023-11-21T00:05:34;9.30;;;4.97;;
10461;SDS011;5278;42.656;23.374;2023-11-21T00:08:03;6.30;;;4.33;;
10461;SDS011;5278;42.656;23.374;2023-11-21T00:10:30;2.97;;;2.30;;
10461;SDS011;5278;42.656;23.374;2023-11-21T00:12:57;3.03;;;2.40;;
10461;SDS011;5278;42.656;23.374;2023-11-21T00:15:24;2.97;;;2.47;;
10461;SDS011;5278;42.656;23.374;2023-11-21T00:17:51;3.07;;;2.57;;
10461;SDS011;5278;42.656;23.374;2023-11-21T00:20:18;2.50;;;2.17;;
10461;SDS011;5278;42.656;23.374;2023-11-21T00:22:45;5.70;;;3.33;;
10461;SDS011;5278;42.656;23.374;2023-11-21T00:25:13;4.37;;;2.77;;
10461;SDS011;5278;42.656;23.374;2023-11-21T00:27:42;3.00;;;2.67;;
10461;SDS011;5278;42.656;23.374;2023-11-21T00:30:09;2.53;;;2.13;;
10461;SDS011;5278;42.656;23.374;2023-11-21T00:32:37;2.67;;;2.10;;
10461;SDS011;5278;42.656;23.374;2023-11-21T00:35:05;3.27;;;2.40;;
10461;SDS011;5278;42.656;23.374;2023-11-21T00:37:32;5.77;;;2.50;;
10461;SDS011;5278;42.656;23.374;2023-11-21T00:39:59;5.17;;;2.70;;
10461;SDS011;5278;42.656;23.374;2023-11-21T00:42:31;3.80;;;2.60;;
10461;SDS011;5278;42.656;23.374;2023-11-21T00:44:59;4.07;;;3.33;;
10461;SDS011;5278;42.656;23.374;2023-11-21T00:47:25;4.13;;;3.23;;
10461;SDS011;5278;42.656;23.374;2023-11-21T00:49:52;5.37;;;3.73;;
10461;SDS011;5278;42.656;23.374;2023-11-21T00:52:19;5.10;;;4.10;;
10461;SDS011;5278;42.656;23.374;2023-11-21T00:54:46;4.27;;;3.50;;
10461;SDS011;5278;42.656;23.374;2023-11-21T00:57:13;5.53;;;4.20;;
10461;SDS011;5278;42.656;23.374;2023-11-21T00:59:42;6.37;;;3.67;;
10461;SDS011;5278;42.656;23.374;2023-11-21T01:02:09;4.40;;;3.20;;
10461;SDS011;5278;42.656;23.374;2023-11-21T01:04:36;5.03;;;3.10;;
10461;SDS011;5278;42.656;23.374;2023-11-21T01:07:03;5.87;;;4.13;;
10461;SDS011;5278;42.656;23.374;2023-11-21T01:09:31;4.83;;;3.67;;
10461;SDS011;5278;42.656;23.374;2023-11-21T01:11:59;5.50;;;3.40;;
10461;SDS011;5278;42.656;23.374;2023-11-21T01:14:26;2.97;;;2.70;;
10461;SDS011;5278;42.656;23.374;2023-11-21T01:16:54;6.40;;;4.90;;
10461;SDS011;5278;42.656;23.374;2023-11-21T01:19:21;6.27;;;5.30;;
10461;SDS011;5278;42.656;23.374;2023-11-21T01:21:48;9.00;;;5.70;;
10461;SDS011;5278;42.656;23.374;2023-11-21T01:24:17;6.40;;;5.13;;
10461;SDS011;5278;42.656;23.374;2023-11-21T01:26:43;9.70;;;5.17;;
10461;SDS011;5278;42.656;23.374;2023-11-21T01:29:11;10.43;;;5.60;;
10461;SDS011;5278;42.656;23.374;2023-11-21T01:31:38;8.60;;;5.20;;
10461;SDS011;5278;42.656;23.374;2023-11-21T01:34:07;7.47;;;5.40;;
10461;SDS011;5278;42.656;23.374;2023-11-21T01:36:33;8.53;;;5.63;;
10461;SDS011;5278;42.656;23.374;2023-11-21T01:39:00;9.27;;;6.67;;
10461;SDS011;5278;42.656;23.374;2023-11-21T01:41:32;13.90;;;7.00;;
10461;SDS011;5278;42.656;23.374;2023-11-21T01:44:00;9.97;;;5.93;;
10461;SDS011;5278;42.656;23.374;2023-11-21T01:46:27;9.27;;;6.30;;
10461;SDS011;5278;42.656;23.374;2023-11-21T01:48:55;11.80;;;6.33;;
10461;SDS011;5278;42.656;23.374;2023-11-21T01:51:24;14.67;;;7.90;;
10461;SDS011;5278;42.656;23.374;2023-11-21T01:53:51;10.90;;;7.03;;
10461;SDS011;5278;42.656;23.374;2023-11-21T01:56:19;10.20;;;7.27;;
10461;SDS011;5278;42.656;23.374;2023-11-21T01:58:47;12.83;;;7.73;;
10461;SDS011;5278;42.656;23.374;2023-11-21T02:01:14;12.80;;;8.00;;
10461;SDS011;5278;42.656;23.374;2023-11-21T02:03:43;12.23;;;8.27;;
10461;SDS011;5278;42.656;23.374;2023-11-21T02:06:10;14.50;;;9.47;;
10461;SDS011;5278;42.656;23.374;2023-11-21T02:08:39;15.80;;;10.10;;
10461;SDS011;5278;42.656;23.374;2023-11-21T02:11:07;19.70;;;11.73;;
10461;SDS011;5278;42.656;23.374;2023-11-21T02:13:38;18.47;;;11.80;;
10461;SDS011;5278;42.656;23.374;2023-11-21T02:16:07;22.50;;;14.57;;
10461;SDS011;5278;42.656;23.374;2023-11-21T02:18:34;28.33;;;17.67;;
10461;SDS011;5278;42.656;23.374;2023-11-21T02:21:03;31.40;;;20.77;;
10461;SDS011;5278;42.656;23.374;2023-11-21T02:23:32;32.53;;;18.57;;
10461;SDS011;5278;42.656;23.374;2023-11-21T02:25:59;28.47;;;19.13;;
10461;SDS011;5278;42.656;23.374;2023-11-21T02:28:29;36.60;;;21.17;;
10461;SDS011;5278;42.656;23.374;2023-11-21T02:30:56;38.37;;;22.23;;
10461;SDS011;5278;42.656;23.374;2023-11-21T02:33:24;39.20;;;21.87;;
10461;SDS011;5278;42.656;23.374;2023-11-21T02:35:51;37.40;;;22.63;;
10461;SDS011;5278;42.656;23.374;2023-11-21T02:38:19;35.80;;;21.43;;
10461;SDS011;5278;42.656;23.374;2023-11-21T02:40:49;42.67;;;22.63;;
10461;SDS011;5278;42.656;23.374;2023-11-21T02:43:16;39.30;;;23.20;;
10461;SDS011;5278;42.656;23.374;2023-11-21T02:45:44;37.83;;;21.87;;
10461;SDS011;5278;42.656;23.374;2023-11-21T02:48:11;37.40;;;22.97;;
10461;SDS011;5278;42.656;23.374;2023-11-21T02:50:39;34.60;;;20.50;;
10461;SDS011;5278;42.656;23.374;2023-11-21T02:53:08;26.20;;;16.63;;
10461;SDS011;5278;42.656;23.374;2023-11-21T02:55:35;29.37;;;18.47;;
10461;SDS011;5278;42.656;23.374;2023-11-21T02:58:04;27.43;;;17.03;;
10461;SDS011;5278;42.656;23.374;2023-11-21T03:00:31;26.97;;;15.70;;
10461;SDS011;5278;42.656;23.374;2023-11-21T03:02:58;26.90;;;15.13;;
10461;SDS011;5278;42.656;23.374;2023-11-21T03:05:25;28.60;;;16.87;;
10461;SDS011;5278;42.656;23.374;2023-11-21T03:07:54;27.10;;;15.57;;
10461;SDS011;5278;42.656;23.374;2023-11-21T03:10:21;20.27;;;14.53;;
10461;SDS011;5278;42.656;23.374;2023-11-21T03:12:48;23.03;;;14.77;;
10461;SDS011;5278;42.656;23.374;2023-11-21T03:15:16;24.50;;;15.23;;
10461;SDS011;5278;42.656;23.374;2023-11-21T03:17:43;24.77;;;16.43;;
10461;SDS011;5278;42.656;23.374;2023-11-21T03:20:10;22.93;;;15.97;;
10461;SDS011;5278;42.656;23.374;2023-11-21T03:22:39;24.43;;;15.73;;
10461;SDS011;5278;42.656;23.374;2023-11-21T03:25:06;26.53;;;16.23;;
10461;SDS011;5278;42.656;23.374;2023-11-21T03:27:35;27.37;;;16.60;;
10461;SDS011;5278;42.656;23.374;2023-11-21T03:30:04;31.03;;;17.70;;
10461;SDS011;5278;42.656;23.374;2023-11-21T03:32:33;25.63;;;16.43;;
10461;SDS011;5278;42.656;23.374;2023-11-21T03:35:01;26.23;;;16.70;;
10461;SDS011;5278;42.656;23.374;2023-11-21T03:37:28;26.90;;;16.93;;
10461;SDS011;5278;42.656;23.374;2023-11-21T03:39:55;24.27;;;16.20;;
10461;SDS011;5278;42.656;23.374;2023-11-21T03:42:22;23.50;;;16.67;;
10461;SDS011;5278;42.656;23.374;2023-11-21T03:44:50;24.27;;;15.77;;
10461;SDS011;5278;42.656;23.374;2023-11-21T03:47:17;23.03;;;13.97;;
10461;SDS011;5278;42.656;23.374;2023-11-21T03:49:46;25.53;;;14.87;;
10461;SDS011;5278;42.656;23.374;2023-11-21T03:52:13;20.77;;;14.67;;
10461;SDS011;5278;42.656;23.374;2023-11-21T03:54:40;25.60;;;16.07;;
10461;SDS011;5278;42.656;23.374;2023-11-21T03:57:08;25.43;;;17.40;;
10461;SDS011;5278;42.656;23.374;2023-11-21T03:59:39;23.47;;;16.10;;
10461;SDS011;5278;42.656;23.374;2023-11-21T04:02:06;23.50;;;14.77;;
10461;SDS011;5278;42.656;23.374;2023-11-21T04:04:33;22.80;;;11.93;;
10461;SDS011;5278;42.656;23.374;2023-11-21T04:07:02;18.40;;;11.40;;
10461;SDS011;5278;42.656;23.374;2023-11-21T04:09:29;12.93;;;8.80;;
10461;SDS011;5278;42.656;23.374;2023-11-21T04:11:56;14.90;;;9.60;;
10461;SDS011;5278;42.656;23.374;2023-11-21T04:14:23;12.80;;;8.67;;
10461;SDS011;5278;42.656;23.374;2023-11-21T04:16:50;12.27;;;6.90;;
10461;SDS011;5278;42.656;23.374;2023-11-21T04:19:17;9.73;;;7.23;;
10461;SDS011;5278;42.656;23.374;2023-11-21T04:21:44;10.70;;;6.90;;
10461;SDS011;5278;42.656;23.374;2023-11-21T04:24:12;12.47;;;7.67;;
10461;SDS011;5278;42.656;23.374;2023-11-21T04:26:39;10.07;;;6.43;;
10461;SDS011;5278;42.656;23.374;2023-11-21T04:29:06;13.43;;;7.67;;
10461;SDS011;5278;42.656;23.374;2023-11-21T04:31:33;10.27;;;6.77;;
10461;SDS011;5278;42.656;23.374;2023-11-21T04:34:00;12.33;;;7.00;;
10461;SDS011;5278;42.656;23.374;2023-11-21T04:36:29;15.83;;;7.70;;
10461;SDS011;5278;42.656;23.374;2023-11-21T04:38:57;10.03;;;6.83;;
10461;SDS011;5278;42.656;23.374;2023-11-21T04:41:25;15.17;;;7.30;;
10461;SDS011;5278;42.656;23.374;2023-11-21T04:43:52;12.13;;;6.80;;
10461;SDS011;5278;42.656;23.374;2023-11-21T04:46:19;8.80;;;6.43;;
10461;SDS011;5278;42.656;23.374;2023-11-21T04:48:48;12.53;;;6.73;;
10461;SDS011;5278;42.656;23.374;2023-11-21T04:51:15;9.57;;;6.67;;
10461;SDS011;5278;42.656;23.374;2023-11-21T04:53:42;10.13;;;7.07;;
10461;SDS011;5278;42.656;23.374;2023-11-21T04:56:08;12.73;;;8.03;;
10461;SDS011;5278;42.656;23.374;2023-11-21T04:58:36;8.93;;;6.50;;
10461;SDS011;5278;42.656;23.374;2023-11-21T05:01:05;9.83;;;6.43;;
10461;SDS011;5278;42.656;23.374;2023-11-21T05:03:34;11.33;;;6.90;;
10461;SDS011;5278;42.656;23.374;2023-11-21T05:06:03;12.93;;;7.30;;
10461;SDS011;5278;42.656;23.374;2023-11-21T05:08:31;10.03;;;6.90;;
10461;SDS011;5278;42.656;23.374;2023-11-21T05:10:59;11.47;;;7.03;;
10461;SDS011;5278;42.656;23.374;2023-11-21T05:13:25;9.47;;;6.97;;
10461;SDS011;5278;42.656;23.374;2023-11-21T05:15:54;17.50;;;7.57;;
10461;SDS011;5278;42.656;23.374;2023-11-21T05:18:21;12.13;;;7.47;;
10461;SDS011;5278;42.656;23.374;2023-11-21T05:20:48;10.90;;;7.60;;
10461;SDS011;5278;42.656;23.374;2023-11-21T05:23:15;11.07;;;7.07;;
10461;SDS011;5278;42.656;23.374;2023-11-21T05:25:42;10.37;;;6.63;;
10461;SDS011;5278;42.656;23.374;2023-11-21T05:28:09;11.00;;;7.27;;
10461;SDS011;5278;42.656;23.374;2023-11-21T05:30:36;9.70;;;7.00;;
10461;SDS011;5278;42.656;23.374;2023-11-21T05:33:05;11.07;;;7.77;;
10461;SDS011;5278;42.656;23.374;2023-11-21T05:35:32;11.97;;;7.10;;
10461;SDS011;5278;42.656;23.374;2023-11-21T05:37:59;13.53;;;7.20;;
10461;SDS011;5278;42.656;23.374;2023-11-21T05:40:26;12.60;;;7.73;;
10461;SDS011;5278;42.656;23.374;2023-11-21T05:42:55;12.67;;;8.27;;
10461;SDS011;5278;42.656;23.374;2023-11-21T05:45:22;11.87;;;7.60;;
10461;SDS011;5278;42.656;23.374;2023-11-21T05:47:51;11.10;;;7.87;;
10461;SDS011;5278;42.656;23.374;2023-11-21T05:50:20;17.93;;;8.17;;
10461;SDS011;5278;42.656;23.374;2023-11-21T05:52:47;13.53;;;8.80;;
10461;SDS011;5278;42.656;23.374;2023-11-21T05:55:15;25.83;;;9.13;;
10461;SDS011;5278;42.656;23.374;2023-11-21T05:57:42;21.57;;;14.23;;
10461;SDS011;5278;42.656;23.374;2023-11-21T06:00:11;20.33;;;12.90;;
10461;SDS011;5278;42.656;23.374;2023-11-21T06:02:45;21.97;;;11.57;;
10461;SDS011;5278;42.656;23.374;2023-11-21T06:05:11;16.60;;;10.43;;
10461;SDS011;5278;42.656;23.374;2023-11-21T06:07:40;20.90;;;10.67;;
10461;SDS011;5278;42.656;23.374;2023-11-21T06:10:07;17.57;;;11.90;;
10461;SDS011;5278;42.656;23.374;2023-11-21T06:12:36;17.57;;;10.70;;
10461;SDS011;5278;42.656;23.374;2023-11-21T06:15:03;16.13;;;10.13;;
10461;SDS011;5278;42.656;23.374;2023-11-21T06:17:33;19.10;;;11.13;;
10461;SDS011;5278;42.656;23.374;2023-11-21T06:20:01;21.93;;;11.83;;
10461;SDS011;5278;42.656;23.374;2023-11-21T06:22:34;20.00;;;11.00;;
10461;SDS011;5278;42.656;23.374;2023-11-21T06:25:03;16.90;;;12.27;;
10461;SDS011;5278;42.656;23.374;2023-11-21T06:27:31;16.93;;;11.37;;
10461;SDS011;5278;42.656;23.374;2023-11-21T06:29:59;20.27;;;13.77;;
10461;SDS011;5278;42.656;23.374;2023-11-21T06:32:26;27.63;;;16.33;;
10461;SDS011;5278;42.656;23.374;2023-11-21T06:34:54;32.10;;;18.40;;
10461;SDS011;5278;42.656;23.374;2023-11-21T06:37:27;23.80;;;15.03;;
10461;SDS011;5278;42.656;23.374;2023-11-21T06:39:54;26.37;;;15.40;;
10461;SDS011;5278;42.656;23.374;2023-11-21T06:42:23;22.37;;;13.73;;
10461;SDS011;5278;42.656;23.374;2023-11-21T06:44:50;20.70;;;13.57;;
10461;SDS011;5278;42.656;23.374;2023-11-21T06:47:19;25.67;;;14.47;;
10461;SDS011;5278;42.656;23.374;2023-11-21T06:49:46;20.07;;;14.03;;
10461;SDS011;5278;42.656;23.374;2023-11-21T06:52:14;22.17;;;14.03;;
10461;SDS011;5278;42.656;23.374;2023-11-21T06:54:41;23.70;;;12.60;;
10461;SDS011;5278;42.656;23.374;2023-11-21T06:57:08;17.50;;;11.93;;
10461;SDS011;5278;42.656;23.374;2023-11-21T06:59:36;22.90;;;13.90;;
10461;SDS011;5278;42.656;23.374;2023-11-21T07:02:03;17.17;;;12.07;;
10461;SDS011;5278;42.656;23.374;2023-11-21T07:04:31;16.47;;;11.13;;
10461;SDS011;5278;42.656;23.374;2023-11-21T07:06:59;21.87;;;12.13;;
10461;SDS011;5278;42.656;23.374;2023-11-21T07:09:26;18.87;;;12.17;;
10461;SDS011;5278;42.656;23.374;2023-11-21T07:11:52;19.73;;;12.47;;
10461;SDS011;5278;42.656;23.374;2023-11-21T07:14:20;19.57;;;11.60;;
10461;SDS011;5278;42.656;23.374;2023-11-21T07:16:49;23.70;;;12.60;;
10461;SDS011;5278;42.656;23.374;2023-11-21T07:19:19;17.20;;;11.90;;
10461;SDS011;5278;42.656;23.374;2023-11-21T07:21:46;15.73;;;10.53;;
10461;SDS011;5278;42.656;23.374;2023-11-21T07:24:17;16.63;;;12.00;;
10461;SDS011;5278;42.656;23.374;2023-11-21T07:26:47;16.53;;;11.57;;
10461;SDS011;5278;42.656;23.374;2023-11-21T07:29:14;19.10;;;11.60;;
10461;SDS011;5278;42.656;23.374;2023-11-21T07:31:41;19.97;;;12.63;;
10461;SDS011;5278;42.656;23.374;2023-11-21T07:34:10;19.27;;;11.10;;
10461;SDS011;5278;42.656;23.374;2023-11-21T07:36:38;15.13;;;11.23;;
10461;SDS011;5278;42.656;23.374;2023-11-21T07:39:05;13.07;;;8.57;;
10461;SDS011;5278;42.656;23.374;2023-11-21T07:41:32;12.13;;;9.80;;
10461;SDS011;5278;42.656;23.374;2023-11-21T07:43:59;12.03;;;8.37;;
10461;SDS011;5278;42.656;23.374;2023-11-21T07:46:26;13.37;;;6.87;;
10461;SDS011;5278;42.656;23.374;2023-11-21T07:48:53;11.23;;;8.57;;
10461;SDS011;5278;42.656;23.374;2023-11-21T07:51:21;13.33;;;8.63;;
10461;SDS011;5278;42.656;23.374;2023-11-21T07:53:50;12.30;;;7.87;;
10461;SDS011;5278;42.656;23.374;2023-11-21T07:56:17;9.40;;;7.03;;
10461;SDS011;5278;42.656;23.374;2023-11-21T07:58:44;13.37;;;10.40;;
10461;SDS011;5278;42.656;23.374;2023-11-21T08:01:11;14.87;;;10.77;;
10461;SDS011;5278;42.656;23.374;2023-11-21T08:03:38;28.07;;;15.40;;
10461;SDS011;5278;42.656;23.374;2023-11-21T08:06:06;27.10;;;18.00;;
10461;SDS011;5278;42.656;23.374;2023-11-21T08:08:35;22.87;;;17.27;;
10461;SDS011;5278;42.656;23.374;2023-11-21T08:11:02;20.90;;;15.83;;
10461;SDS011;5278;42.656;23.374;2023-11-21T08:13:33;25.20;;;16.33;;
10461;SDS011;5278;42.656;23.374;2023-11-21T08:16:00;12.53;;;10.10;;
10461;SDS011;5278;42.656;23.374;2023-11-21T08:18:30;17.97;;;11.93;;
10461;SDS011;5278;42.656;23.374;2023-11-21T08:20:58;17.40;;;12.23;;
10461;SDS011;5278;42.656;23.374;2023-11-21T08:23:25;19.87;;;13.50;;
10461;SDS011;5278;42.656;23.374;2023-11-21T08:25:53;20.07;;;12.50;;
10461;SDS011;5278;42.656;23.374;2023-11-21T08:28:20;16.40;;;12.50;;
10461;SDS011;5278;42.656;23.374;2023-11-21T08:30:48;18.90;;;12.23;;
10461;SDS011;5278;42.656;23.374;2023-11-21T08:33:15;17.77;;;10.93;;
10461;SDS011;5278;42.656;23.374;2023-11-21T08:35:42;15.97;;;10.07;;
10461;SDS011;5278;42.656;23.374;2023-11-21T08:38:09;15.90;;;10.53;;
10461;SDS011;5278;42.656;23.374;2023-11-21T08:40:36;12.13;;;10.47;;
10461;SDS011;5278;42.656;23.374;2023-11-21T08:43:04;13.30;;;10.20;;
10461;SDS011;5278;42.656;23.374;2023-11-21T08:45:32;16.10;;;10.70;;
10461;SDS011;5278;42.656;23.374;2023-11-21T08:47:59;14.20;;;9.53;;
10461;SDS011;5278;42.656;23.374;2023-11-21T08:50:26;17.07;;;10.10;;
10461;SDS011;5278;42.656;23.374;2023-11-21T08:52:53;15.20;;;10.67;;
10461;SDS011;5278;42.656;23.374;2023-11-21T08:55:20;19.90;;;12.53;;
10461;SDS011;5278;42.656;23.374;2023-11-21T08:57:47;24.17;;;13.10;;
10461;SDS011;5278;42.656;23.374;2023-11-21T09:00:17;20.97;;;13.57;;
10461;SDS011;5278;42.656;23.374;2023-11-21T09:02:44;23.83;;;14.77;;
10461;SDS011;5278;42.656;23.374;2023-11-21T09:05:12;15.80;;;12.90;;
10461;SDS011;5278;42.656;23.374;2023-11-21T09:07:40;19.30;;;13.50;;
10461;SDS011;5278;42.656;23.374;2023-11-21T09:10:08;30.43;;;14.47;;
10461;SDS011;5278;42.656;23.374;2023-11-21T09:12:36;23.13;;;14.07;;
10461;SDS011;5278;42.656;23.374;2023-11-21T09:15:04;22.40;;;13.63;;
10461;SDS011;5278;42.656;23.374;2023-11-21T09:17:33;19.10;;;13.77;;
10461;SDS011;5278;42.656;23.374;2023-11-21T09:20:00;20.80;;;12.37;;
10461;SDS011;5278;42.656;23.374;2023-11-21T09:22:30;21.00;;;12.87;;
10461;SDS011;5278;42.656;23.374;2023-11-21T09:24:57;21.27;;;13.87;;
10461;SDS011;5278;42.656;23.374;2023-11-21T09:27:24;18.93;;;12.80;;
10461;SDS011;5278;42.656;23.374;2023-11-21T09:29:52;20.73;;;14.63;;
10461;SDS011;5278;42.656;23.374;2023-11-21T09:32:19;17.07;;;12.50;;
10461;SDS011;5278;42.656;23.374;2023-11-21T09:34:50;17.60;;;12.30;;
10461;SDS011;5278;42.656;23.374;2023-11-21T09:37:19;16.40;;;11.67;;
10461;SDS011;5278;42.656;23.374;2023-11-21T09:39:45;17.77;;;13.80;;
10461;SDS011;5278;42.656;23.374;2023-11-21T09:42:15;20.10;;;13.30;;
10461;SDS011;5278;42.656;23.374;2023-11-21T09:44:48;17.77;;;12.40;;
10461;SDS011;5278;42.656;23.374;2023-11-21T09:47:22;21.37;;;13.43;;
10461;SDS011;5278;42.656;23.374;2023-11-21T09:49:51;17.57;;;13.00;;
10461;SDS011;5278;42.656;23.374;2023-11-21T09:52:24;19.40;;;13.20;;
10461;SDS011;5278;42.656;23.374;2023-11-21T09:54:55;20.63;;;14.67;;
10461;SDS011;5278;42.656;23.374;2023-11-21T09:57:23;20.47;;;14.83;;
10461;SDS011;5278;42.656;23.374;2023-11-21T09:59:51;26.53;;;15.23;;
10461;SDS011;5278;42.656;23.374;2023-11-21T10:02:24;25.37;;;13.37;;
10461;SDS011;5278;42.656;23.374;2023-11-21T10:04:55;19.20;;;13.13;;
10461;SDS011;5278;42.656;23.374;2023-11-21T10:07:22;29.87;;;19.03;;
10461;SDS011;5278;42.656;23.374;2023-11-21T10:09:50;17.50;;;13.67;;
10461;SDS011;5278;42.656;23.374;2023-11-21T10:12:18;17.90;;;13.27;;
10461;SDS011;5278;42.656;23.374;2023-11-21T10:14:51;18.87;;;14.07;;
10461;SDS011;5278;42.656;23.374;2023-11-21T10:17:21;18.70;;;13.17;;
10461;SDS011;5278;42.656;23.374;2023-11-21T10:19:51;25.33;;;14.40;;
10461;SDS011;5278;42.656;23.374;2023-11-21T10:22:22;19.10;;;13.37;;
10461;SDS011;5278;42.656;23.374;2023-11-21T10:24:50;15.30;;;12.70;;
10461;SDS011;5278;42.656;23.374;2023-11-21T10:27:18;18.50;;;12.50;;
10461;SDS011;5278;42.656;23.374;2023-11-21T10:29:45;17.53;;;12.93;;
10461;SDS011;5278;42.656;23.374;2023-11-21T10:32:12;20.03;;;13.10;;
10461;SDS011;5278;42.656;23.374;2023-11-21T10:34:39;17.27;;;13.00;;
10461;SDS011;5278;42.656;23.374;2023-11-21T10:37:13;23.37;;;14.13;;
10461;SDS011;5278;42.656;23.374;2023-11-21T10:39:42;16.20;;;12.07;;
10461;SDS011;5278;42.656;23.374;2023-11-21T10:42:10;22.90;;;13.17;;
10461;SDS011;5278;42.656;23.374;2023-11-21T10:44:37;19.43;;;13.40;;
10461;SDS011;5278;42.656;23.374;2023-11-21T10:47:04;19.83;;;13.03;;
10461;SDS011;5278;42.656;23.374;2023-11-21T10:49:31;22.07;;;13.17;;
10461;SDS011;5278;42.656;23.374;2023-11-21T10:51:57;24.67;;;15.33;;
10461;SDS011;5278;42.656;23.374;2023-11-21T10:54:24;18.33;;;14.33;;
10461;SDS011;5278;42.656;23.374;2023-11-21T10:56:56;17.37;;;11.63;;
10461;SDS011;5278;42.656;23.374;2023-11-21T10:59:24;16.87;;;11.67;;
10461;SDS011;5278;42.656;23.374;2023-11-21T11:01:54;14.57;;;11.00;;
10461;SDS011;5278;42.656;23.374;2023-11-21T11:04:27;16.67;;;10.73;;
10461;SDS011;5278;42.656;23.374;2023-11-21T11:06:55;13.70;;;10.43;;
10461;SDS011;5278;42.656;23.374;2023-11-21T11:09:24;20.53;;;10.57;;
10461;SDS011;5278;42.656;23.374;2023-11-21T11:11:54;14.50;;;10.33;;
10461;SDS011;5278;42.656;23.374;2023-11-21T11:14:21;12.30;;;10.23;;
10461;SDS011;5278;42.656;23.374;2023-11-21T11:16:52;15.67;;;10.60;;
10461;SDS011;5278;42.656;23.374;2023-11-21T11:19:20;16.60;;;12.47;;
10461;SDS011;5278;42.656;23.374;2023-11-21T11:21:50;24.83;;;11.20;;
10461;SDS011;5278;42.656;23.374;2023-11-21T11:24:28;17.17;;;10.40;;
10461;SDS011;5278;42.656;23.374;2023-11-21T11:27:14;15.40;;;10.03;;
10461;SDS011;5278;42.656;23.374;2023-11-21T11:29:53;14.20;;;9.80;;
10461;SDS011;5278;42.656;23.374;2023-11-21T11:32:30;14.30;;;10.23;;
10461;SDS011;5278;42.656;23.374;2023-11-21T11:35:07;16.80;;;10.60;;
10461;SDS011;5278;42.656;23.374;2023-11-21T11:37:42;17.93;;;10.60;;
10461;SDS011;5278;42.656;23.374;2023-11-21T11:40:11;14.63;;;10.63;;
10461;SDS011;5278;42.656;23.374;2023-11-21T11:42:39;17.10;;;11.57;;
10461;SDS011;5278;42.656;23.374;2023-11-21T11:45:23;20.43;;;11.70;;
10461;SDS011;5278;42.656;23.374;2023-11-21T11:47:59;15.47;;;11.53;;
10461;SDS011;5278;42.656;23.374;2023-11-21T11:50:27;19.47;;;11.53;;
10461;SDS011;5278;42.656;23.374;2023-11-21T11:52:55;14.33;;;11.37;;
10461;SDS011;5278;42.656;23.374;2023-11-21T11:55:37;21.37;;;12.50;;
10461;SDS011;5278;42.656;23.374;2023-11-21T11:58:06;23.50;;;13.20;;
10461;SDS011;5278;42.656;23.374;2023-11-21T12:00:34;16.67;;;11.80;;
10461;SDS011;5278;42.656;23.374;2023-11-21T12:03:05;16.83;;;12.03;;
10461;SDS011;5278;42.656;23.374;2023-11-21T12:05:34;16.87;;;11.57;;
10461;SDS011;5278;42.656;23.374;2023-11-21T12:08:04;16.90;;;10.73;;
10461;SDS011;5278;42.656;23.374;2023-11-21T12:10:32;15.30;;;10.97;;
10461;SDS011;5278;42.656;23.374;2023-11-21T12:13:02;16.40;;;12.27;;
10461;SDS011;5278;42.656;23.374;2023-11-21T12:15:34;19.67;;;12.90;;
10461;SDS011;5278;42.656;23.374;2023-11-21T12:18:01;22.47;;;14.80;;
10461;SDS011;5278;42.656;23.374;2023-11-21T12:20:28;21.37;;;14.57;;
10461;SDS011;5278;42.656;23.374;2023-11-21T12:22:57;25.40;;;14.20;;
10461;SDS011;5278;42.656;23.374;2023-11-21T12:25:26;18.80;;;13.43;;
10461;SDS011;5278;42.656;23.374;2023-11-21T12:27:55;22.50;;;16.20;;
10461;SDS011;5278;42.656;23.374;2023-11-21T12:30:22;19.83;;;14.67;;
10461;SDS011;5278;42.656;23.374;2023-11-21T12:32:53;24.73;;;15.50;;
10461;SDS011;5278;42.656;23.374;2023-11-21T12:35:21;26.93;;;16.83;;
10461;SDS011;5278;42.656;23.374;2023-11-21T12:37:51;25.07;;;16.57;;
10461;SDS011;5278;42.656;23.374;2023-11-21T12:40:18;26.20;;;18.13;;
10461;SDS011;5278;42.656;23.374;2023-11-21T12:42:48;28.60;;;18.77;;
10461;SDS011;5278;42.656;23.374;2023-11-21T12:45:18;30.27;;;19.67;;
10461;SDS011;5278;42.656;23.374;2023-11-21T12:47:47;28.07;;;18.77;;
10461;SDS011;5278;42.656;23.374;2023-11-21T12:50:17;33.93;;;19.60;;
10461;SDS011;5278;42.656;23.374;2023-11-21T12:52:48;27.97;;;19.50;;
10461;SDS011;5278;42.656;23.374;2023-11-21T12:55:16;27.50;;;19.40;;
10461;SDS011;5278;42.656;23.374;2023-11-21T12:57:47;27.80;;;19.87;;
10461;SDS011;5278;42.656;23.374;2023-11-21T13:00:16;31.50;;;20.47;;
10461;SDS011;5278;42.656;23.374;2023-11-21T13:02:52;30.40;;;19.73;;
10461;SDS011;5278;42.656;23.374;2023-11-21T13:05:30;29.03;;;18.77;;
10461;SDS011;5278;42.656;23.374;2023-11-21T13:07:58;27.57;;;19.03;;
10461;SDS011;5278;42.656;23.374;2023-11-21T13:10:28;33.90;;;21.00;;
10461;SDS011;5278;42.656;23.374;2023-11-21T13:12:56;32.47;;;20.10;;
10461;SDS011;5278;42.656;23.374;2023-11-21T13:15:25;33.67;;;19.53;;
10461;SDS011;5278;42.656;23.374;2023-11-21T13:17:53;28.30;;;20.30;;
10461;SDS011;5278;42.656;23.374;2023-11-21T13:20:21;24.80;;;18.87;;
10461;SDS011;5278;42.656;23.374;2023-11-21T13:22:51;25.90;;;17.97;;
10461;SDS011;5278;42.656;23.374;2023-11-21T13:25:22;30.77;;;19.63;;
10461;SDS011;5278;42.656;23.374;2023-11-21T13:27:52;28.00;;;19.37;;
10461;SDS011;5278;42.656;23.374;2023-11-21T13:30:19;33.07;;;19.30;;
10461;SDS011;5278;42.656;23.374;2023-11-21T13:32:51;27.43;;;19.57;;
10461;SDS011;5278;42.656;23.374;2023-11-21T13:35:18;28.50;;;19.70;;
10461;SDS011;5278;42.656;23.374;2023-11-21T13:38:03;30.53;;;20.30;;
10461;SDS011;5278;42.656;23.374;2023-11-21T13:40:31;31.03;;;20.50;;
10461;SDS011;5278;42.656;23.374;2023-11-21T13:43:02;36.63;;;21.03;;
10461;SDS011;5278;42.656;23.374;2023-11-21T13:45:30;32.00;;;20.07;;
10461;SDS011;5278;42.656;23.374;2023-11-21T13:47:57;29.83;;;21.63;;
10461;SDS011;5278;42.656;23.374;2023-11-21T13:50:24;26.77;;;19.80;;
10461;SDS011;5278;42.656;23.374;2023-11-21T13:52:58;27.83;;;19.93;;
10461;SDS011;5278;42.656;23.374;2023-11-21T13:55:29;35.27;;;19.80;;
10461;SDS011;5278;42.656;23.374;2023-11-21T13:57:56;28.80;;;19.73;;
10461;SDS011;5278;42.656;23.374;2023-11-21T14:00:24;26.47;;;19.10;;
10461;SDS011;5278;42.656;23.374;2023-11-21T14:03:07;28.73;;;20.10;;
10461;SDS011;5278;42.656;23.374;2023-11-21T14:05:42;29.90;;;20.07;;
10461;SDS011;5278;42.656;23.374;2023-11-21T14:08:11;28.00;;;20.77;;
10461;SDS011;5278;42.656;23.374;2023-11-21T14:10:41;32.33;;;20.57;;
10461;SDS011;5278;42.656;23.374;2023-11-21T14:13:10;26.20;;;19.20;;
10461;SDS011;5278;42.656;23.374;2023-11-21T14:15:38;25.13;;;19.20;;
10461;SDS011;5278;42.656;23.374;2023-11-21T14:18:10;36.47;;;19.97;;
10461;SDS011;5278;42.656;23.374;2023-11-21T14:20:39;28.33;;;18.30;;
10461;SDS011;5278;42.656;23.374;2023-11-21T14:23:06;29.27;;;19.70;;
10461;SDS011;5278;42.656;23.374;2023-11-21T14:25:35;30.97;;;19.10;;
10461;SDS011;5278;42.656;23.374;2023-11-21T14:28:02;29.50;;;20.53;;
10461;SDS011;5278;42.656;23.374;2023-11-21T14:30:31;29.93;;;20.47;;
10461;SDS011;5278;42.656;23.374;2023-11-21T14:33:00;30.53;;;19.70;;
10461;SDS011;5278;42.656;23.374;2023-11-21T14:35:27;27.87;;;19.67;;